07:23
Airports
History
Links
Donate
Help keep this website running!
PayPal
Bitcoin
This page is community maintained. The information is intended for PC simulator navigation or reference.
Always use approved charts for navigation.
EDHL
Lubeck Blankensee
Lubeck Blankensee (EDHL)
Lubeck, Schleswig-Holstein, Germany (23560)
(C)
Lat/Lng:53° 48' 17.87" N / 10° 43' 1.41" E
53.804963 / 10.717059
Elevation:53'ft / 16mMSL
ID / ICAO:EDHL
Runways:1
Longest:07-25
Asphalt 2,092m / 6,864ft
Controlled:Yes
METAR06:50 GMT 2017-09-23
Altimeter: 30.24
Visibility: 4.3 statute miles
Wind: 4 knots (from 070°)
Temp: 11°c / 52°f
Humidity: 100.0%

METAR: EDHL 230650Z 07004KT 7000 BCFG NSC 11/11 Q1024

(Powered by phpweather)
Airport Radio Frequencies
ATIS: 119.92
Ground: 121.77
Tower: 125.1, 128.7
Approach: 124.22
Nearby VORs <50NM
Nearby NDBs
Runway 07 / 25
Dimensions:2092.1 x 60.1m 6864' x 197'ft
Surface:Asphalt
Edge Lights:High intensity
Runway 07 [A]Runway 25 [B]
Heading:071°TH 251°TH
Lat:
Lng:
53° 48' 7.37"N
10° 42' 6.79"E
53° 48' 28.36"N
10° 43' 56.03"E
ALS:SALSSALS
User Notes and Comments
53° 48' 17.87" N / 10° 43' 1.41" E
Distance To
Airport ID:
Nearby Airports
(C) Sierksdorf Hof Altona 18.1 NM
EDXT N
(C) Wahlstedt 23.2 NM
EDHW WNW 299°
(U) Hartenholm 28.6 NM
EDHM WNW 285°
(C) Hamburg 32.2 NM
EDDH ( WX ) WSW 248°
(C) Wismar-Mueggenburg 32.8 NM
EDCW ENE 76°
(C) Grube 32.8 NM
EDHB NNE 22°
(C) Neumuenster 36.8 NM
EDHN WNW 300°
VFR Chart
Flight Planning at SkyVector.com